createdAt,value
2018-12-07T00:01:38.160Z,80.77
2018-12-07T00:04:08.848Z,69.13
2018-12-07T00:06:39.403Z,74.37
2018-12-07T00:09:10.480Z,79.63
2018-12-07T00:11:41.451Z,79.53
2018-12-07T00:14:13.298Z,82.77
2018-12-07T00:16:45.181Z,79.57
2018-12-07T00:19:15.756Z,76.63
2018-12-07T00:21:46.430Z,77.43
2018-12-07T00:24:17.089Z,82.73
2018-12-07T00:26:47.676Z,84.83
2018-12-07T00:29:19.449Z,75.87
2018-12-07T00:31:51.761Z,75.57
2018-12-07T00:34:22.329Z,83.50
2018-12-07T00:36:53.035Z,70.13
2018-12-07T00:39:23.594Z,69.30
2018-12-07T00:41:54.200Z,69.13
2018-12-07T00:44:24.753Z,74.83
2018-12-07T00:46:55.264Z,66.47
2018-12-07T00:49:25.965Z,71.57
2018-12-07T00:51:56.534Z,66.90
2018-12-07T00:54:27.178Z,68.50
2018-12-07T00:56:57.740Z,63.83
2018-12-07T00:59:28.493Z,59.10
2018-12-07T01:01:59.062Z,68.07
2018-12-07T01:04:29.703Z,62.67
2018-12-07T01:07:00.309Z,63.37
2018-12-07T01:09:30.991Z,68.80
2018-12-07T01:12:01.495Z,61.53
2018-12-07T01:14:32.149Z,68.40
2018-12-07T01:17:02.824Z,66.50
2018-12-07T01:19:33.402Z,67.80
2018-12-07T01:22:03.939Z,70.40
2018-12-07T01:24:35.423Z,65.43
2018-12-07T01:27:06.031Z,73.23
2018-12-07T01:29:36.706Z,71.50
2018-12-07T01:32:07.412Z,63.80
2018-12-07T01:34:38.031Z,64.50
2018-12-07T01:37:08.664Z,73.03
2018-12-07T01:39:39.229Z,68.83
2018-12-07T01:42:09.785Z,66.30
2018-12-07T01:44:40.440Z,65.50
2018-12-07T01:47:11.019Z,68.87
2018-12-07T01:49:41.667Z,63.03
2018-12-07T01:52:12.354Z,59.17
2018-12-07T01:54:42.970Z,66.77
2018-12-07T01:57:13.511Z,61.70
2018-12-07T01:59:44.313Z,57.07
2018-12-07T02:02:14.934Z,62.67
2018-12-07T02:04:45.606Z,59.40
2018-12-07T02:07:31.043Z,53.67
2018-12-07T02:10:01.621Z,56.20
2018-12-07T02:12:33.469Z,57.87
2018-12-07T02:15:04.165Z,57.57
2018-12-07T02:17:34.826Z,57.53
2018-12-07T02:20:05.895Z,57.03
2018-12-07T02:22:36.515Z,56.47
2018-12-07T02:25:07.543Z,56.67
2018-12-07T02:27:43.109Z,51.20
2018-12-07T02:30:13.771Z,50.73
2018-12-07T02:32:44.519Z,52.73
2018-12-07T02:35:15.138Z,53.53
2018-12-07T02:37:45.762Z,54.27
2018-12-07T02:40:16.439Z,50.23
2018-12-07T02:42:47.019Z,48.80
2018-12-07T02:45:17.591Z,51.40
2018-12-07T02:47:48.186Z,57.33
2018-12-07T02:50:18.782Z,45.50
2018-12-07T02:52:49.374Z,43.70
2018-12-07T02:55:21.031Z,47.10
2018-12-07T02:57:51.700Z,47.87
2018-12-07T03:00:22.307Z,51.10
2018-12-07T03:02:53.009Z,48.60
2018-12-07T03:05:24.066Z,43.73
2018-12-07T03:07:54.848Z,49.23
2018-12-07T03:10:25.393Z,49.63
2018-12-07T03:12:56.075Z,45.07
2018-12-07T03:15:26.786Z,48.90
2018-12-07T03:17:57.434Z,49.67
2018-12-07T03:20:28.076Z,50.73
2018-12-07T03:22:58.691Z,45.97
2018-12-07T03:25:29.347Z,47.57
2018-12-07T03:27:59.939Z,45.93
2018-12-07T03:30:30.501Z,50.03
2018-12-07T03:33:01.130Z,45.67
2018-12-07T03:35:31.729Z,45.90
2018-12-07T03:38:02.314Z,44.53
2018-12-07T03:40:32.898Z,43.43
2018-12-07T03:43:03.438Z,45.40
2018-12-07T03:45:34.062Z,47.33
2018-12-07T03:48:04.735Z,40.60
2018-12-07T03:50:35.393Z,43.30
2018-12-07T03:53:05.974Z,38.87
2018-12-07T03:55:36.544Z,43.57
2018-12-07T03:58:07.095Z,42.50
2018-12-07T04:00:37.730Z,35.93
2018-12-07T04:03:08.364Z,44.87
2018-12-07T04:05:38.954Z,39.77
2018-12-07T04:08:09.560Z,38.90
2018-12-07T04:10:40.232Z,35.63
2018-12-07T04:13:10.833Z,34.40
2018-12-07T04:15:41.474Z,40.43
2018-12-07T04:18:12.174Z,39.80
2018-12-07T04:20:42.732Z,37.63
2018-12-07T04:23:13.360Z,36.87
2018-12-07T04:25:43.915Z,36.43
2018-12-07T04:28:16.509Z,39.30
2018-12-07T04:30:47.121Z,39.43
2018-12-07T04:33:17.678Z,37.50
2018-12-07T04:35:48.244Z,34.27
2018-12-07T04:38:18.814Z,42.27
2018-12-07T04:40:49.373Z,37.30
2018-12-07T04:43:19.912Z,38.30
2018-12-07T04:45:50.495Z,35.00
2018-12-07T04:48:21.054Z,35.97
2018-12-07T04:50:51.590Z,37.27
2018-12-07T04:53:22.126Z,35.97
2018-12-07T04:55:52.724Z,35.80
2018-12-07T04:58:23.246Z,34.03
2018-12-07T05:00:53.783Z,33.53
2018-12-07T05:03:24.364Z,35.00
2018-12-07T05:05:54.952Z,35.03
2018-12-07T05:08:25.592Z,35.37
2018-12-07T05:10:56.162Z,36.57
2018-12-07T05:13:26.717Z,32.97
2018-12-07T05:15:57.394Z,36.70
2018-12-07T05:18:28.099Z,34.63
2018-12-07T05:20:58.862Z,37.63
2018-12-07T05:23:29.527Z,38.93
2018-12-07T05:26:00.215Z,39.73
2018-12-07T05:28:30.752Z,37.90
2018-12-07T05:31:01.605Z,35.70
2018-12-07T05:33:32.469Z,36.73
2018-12-07T05:36:03.229Z,37.60
2018-12-07T05:38:33.781Z,40.43
2018-12-07T05:41:04.312Z,44.83
2018-12-07T05:43:34.866Z,45.37
2018-12-07T05:46:07.502Z,36.87
2018-12-07T05:48:38.096Z,36.80
2018-12-07T05:51:08.699Z,39.93
2018-12-07T05:53:39.312Z,43.77
2018-12-07T05:56:09.804Z,43.07
2018-12-07T05:58:40.428Z,36.47
2018-12-07T06:01:11.058Z,35.17
2018-12-07T06:03:41.695Z,38.20
2018-12-07T06:06:12.529Z,39.43
2018-12-07T06:08:43.291Z,41.17
2018-12-07T06:11:13.955Z,33.07
2018-12-07T06:13:44.555Z,38.00
2018-12-07T06:16:15.317Z,38.97
2018-12-07T06:18:45.824Z,37.07
2018-12-07T06:21:16.419Z,40.80
2018-12-07T06:23:47.014Z,38.03
2018-12-07T06:26:17.585Z,36.53
2018-12-07T06:28:48.120Z,39.37
2018-12-07T06:31:19.731Z,38.90
2018-12-07T06:33:51.509Z,38.07
2018-12-07T06:36:22.030Z,40.73
2018-12-07T06:38:52.765Z,33.77
2018-12-07T06:41:23.526Z,35.30
2018-12-07T06:43:54.143Z,34.07
2018-12-07T06:46:24.797Z,33.67
2018-12-07T06:49:11.378Z,41.20
2018-12-07T06:51:43.947Z,33.20
2018-12-07T06:54:14.661Z,36.03
2018-12-07T06:56:45.566Z,33.93
2018-12-07T06:59:16.211Z,40.83
2018-12-07T07:01:46.759Z,40.67
2018-12-07T07:04:17.407Z,41.40
2018-12-07T07:06:47.980Z,35.97
2018-12-07T07:09:18.736Z,39.07
2018-12-07T07:11:49.277Z,35.00
2018-12-07T07:14:19.833Z,39.47
2018-12-07T07:16:50.410Z,43.23
2018-12-07T07:19:21.017Z,46.00
2018-12-07T07:21:51.587Z,41.90
2018-12-07T07:24:22.090Z,42.77
2018-12-07T07:26:52.577Z,53.53
2018-12-07T07:29:23.097Z,39.90
2018-12-07T07:31:53.670Z,43.37
2018-12-07T07:34:24.199Z,46.40
2018-12-07T07:36:54.787Z,47.83
2018-12-07T07:39:25.386Z,40.37
2018-12-07T07:41:55.914Z,45.43
2018-12-07T07:44:26.494Z,43.57
2018-12-07T07:46:57.208Z,43.87
2018-12-07T07:49:27.860Z,42.33
2018-12-07T07:51:58.507Z,38.17
2018-12-07T07:54:29.071Z,40.73
2018-12-07T07:56:59.611Z,41.67
2018-12-07T07:59:30.176Z,41.83
2018-12-07T08:02:00.719Z,45.63
2018-12-07T08:04:31.292Z,43.37
2018-12-07T08:07:01.831Z,39.77
2018-12-07T08:09:32.392Z,44.00
2018-12-07T08:12:03.908Z,46.07
2018-12-07T08:14:34.453Z,41.63
2018-12-07T08:17:05.076Z,43.60
2018-12-07T08:19:35.622Z,43.60
2018-12-07T08:22:06.266Z,41.87
2018-12-07T08:24:36.783Z,43.77
2018-12-07T08:27:07.286Z,45.07
2018-12-07T08:29:37.913Z,37.73
2018-12-07T08:32:09.324Z,44.37
2018-12-07T08:34:39.870Z,45.93
2018-12-07T08:37:10.430Z,40.27
2018-12-07T08:39:40.947Z,39.67
2018-12-07T08:42:11.798Z,39.07
2018-12-07T08:44:42.375Z,46.93
2018-12-07T08:47:14.057Z,45.87
2018-12-07T08:49:49.678Z,41.90
2018-12-07T08:52:20.255Z,40.67
2018-12-07T08:54:50.863Z,42.60
2018-12-07T08:57:22.193Z,37.67
2018-12-07T08:59:52.710Z,39.60
2018-12-07T09:02:23.331Z,39.57
2018-12-07T09:04:53.966Z,40.77
2018-12-07T09:07:24.604Z,41.00
2018-12-07T09:09:55.324Z,40.67
2018-12-07T09:12:25.992Z,38.80
2018-12-07T09:14:56.492Z,38.60
2018-12-07T09:17:27.094Z,36.30
2018-12-07T09:19:57.703Z,37.90
2018-12-07T09:22:28.306Z,31.47
2018-12-07T09:24:58.869Z,36.43
2018-12-07T09:27:29.401Z,34.23
2018-12-07T09:29:59.936Z,30.20
2018-12-07T09:32:30.492Z,29.90
2018-12-07T09:35:01.035Z,31.00
2018-12-07T09:37:31.671Z,29.83
2018-12-07T09:40:02.208Z,25.30
2018-12-07T09:42:32.859Z,29.97
2018-12-07T09:45:03.435Z,27.47
2018-12-07T09:47:34.042Z,30.67
2018-12-07T09:50:04.783Z,27.87
2018-12-07T09:52:35.335Z,28.77
2018-12-07T09:55:06.136Z,26.80
2018-12-07T09:57:36.687Z,26.13
2018-12-07T10:00:08.400Z,24.40
2018-12-07T10:02:38.926Z,23.47
2018-12-07T10:05:09.590Z,20.43
2018-12-07T10:07:40.191Z,21.50
2018-12-07T10:10:10.724Z,23.17
2018-12-07T10:12:42.192Z,23.83
2018-12-07T10:15:16.146Z,22.80
2018-12-07T10:17:50.519Z,18.37
2018-12-07T10:20:21.206Z,20.27
2018-12-07T10:22:54.044Z,19.37
2018-12-07T10:25:26.354Z,18.40
2018-12-07T10:28:00.684Z,22.07
2018-12-07T10:30:32.874Z,17.10
2018-12-07T10:33:03.479Z,17.90
2018-12-07T10:35:37.769Z,17.30
2018-12-07T10:38:12.989Z,18.80
2018-12-07T10:40:43.547Z,19.57
2018-12-07T10:43:14.286Z,18.67
2018-12-07T10:45:44.841Z,16.17
2018-12-07T10:48:15.447Z,17.07
2018-12-07T10:50:46.059Z,17.60
2018-12-07T10:53:16.855Z,17.37
2018-12-07T10:55:47.387Z,15.80
2018-12-07T10:58:20.080Z,17.73
2018-12-07T11:00:55.593Z,17.13
2018-12-07T11:04:33.007Z,16.90
2018-12-07T11:07:08.755Z,17.17
2018-12-07T11:09:48.586Z,16.27
2018-12-07T11:12:24.850Z,17.13
2018-12-07T11:15:00.704Z,17.80
2018-12-07T11:17:36.830Z,15.83
2018-12-07T11:20:12.862Z,18.67
2018-12-07T11:22:51.607Z,16.07
2018-12-07T11:25:27.278Z,16.80
2018-12-07T11:29:03.309Z,15.90
2018-12-07T11:34:36.498Z,17.93
2018-12-07T11:37:07.449Z,16.80
2018-12-07T11:39:38.214Z,19.73
2018-12-07T11:42:10.952Z,19.87
2018-12-07T11:44:47.343Z,18.77
2018-12-07T11:47:18.076Z,18.50
2018-12-07T11:49:48.671Z,19.87
2018-12-07T11:52:19.325Z,20.67
2018-12-07T12:00:02.167Z,20.93
2018-12-07T12:02:33.103Z,21.77
2018-12-07T12:05:03.710Z,22.33
2018-12-07T12:07:34.341Z,23.70
2018-12-07T12:10:05.308Z,22.80
2018-12-07T12:12:37.918Z,23.77
2018-12-07T12:15:09.319Z,23.63
2018-12-07T12:17:39.872Z,24.30
2018-12-07T12:20:11.620Z,23.77
2018-12-07T12:22:42.497Z,24.13
2018-12-07T12:25:13.066Z,23.43
2018-12-07T12:27:43.608Z,25.10
2018-12-07T12:30:14.603Z,26.80
2018-12-07T12:32:45.237Z,25.83
2018-12-07T12:35:15.863Z,24.63
2018-12-07T12:37:46.508Z,28.53
2018-12-07T12:40:17.198Z,26.47
2018-12-07T12:42:47.787Z,27.87
2018-12-07T12:45:18.437Z,28.93
2018-12-07T12:47:48.983Z,30.53
2018-12-07T12:50:24.726Z,28.63
2018-12-07T12:52:55.380Z,28.80
2018-12-07T12:55:26.143Z,28.83
2018-12-07T12:57:56.718Z,27.30
2018-12-07T13:00:27.356Z,29.97
2018-12-07T13:02:58.488Z,27.90
2018-12-07T13:05:29.112Z,29.00
2018-12-07T13:07:59.803Z,37.50
2018-12-07T13:10:30.427Z,31.03
2018-12-07T13:13:00.987Z,27.73
2018-12-07T13:15:31.576Z,32.30
2018-12-07T13:18:02.148Z,30.93
2018-12-07T13:20:32.736Z,32.33
2018-12-07T13:23:03.388Z,33.47
2018-12-07T13:25:33.989Z,31.20
2018-12-07T13:28:04.514Z,36.37
2018-12-07T13:30:35.077Z,30.37
2018-12-07T13:33:05.609Z,33.03
2018-12-07T13:35:36.126Z,32.53
2018-12-07T13:38:06.781Z,37.07
2018-12-07T13:40:37.708Z,38.53
2018-12-07T13:43:08.655Z,37.60
2018-12-07T13:45:39.334Z,37.43
2018-12-07T13:48:10.193Z,37.13
2018-12-07T13:50:42.856Z,39.07
2018-12-07T13:53:13.578Z,36.17
2018-12-07T13:55:44.261Z,36.67
2018-12-07T13:58:17.040Z,41.00
2018-12-07T14:00:47.936Z,37.50
2018-12-07T14:03:18.761Z,36.67
2018-12-07T14:05:49.640Z,39.00
2018-12-07T14:08:20.365Z,35.80
2018-12-07T14:10:51.047Z,38.73
2018-12-07T14:13:21.869Z,35.43
2018-12-07T14:15:52.644Z,36.23
2018-12-07T14:18:23.465Z,34.13
2018-12-07T14:20:54.209Z,34.17
2018-12-07T14:23:24.918Z,36.80
2018-12-07T14:25:55.640Z,35.27
2018-12-07T14:28:26.294Z,37.10
2018-12-07T14:30:57.172Z,37.77
2018-12-07T14:33:27.998Z,36.97
2018-12-07T14:35:58.764Z,30.10
2018-12-07T14:38:29.449Z,32.67
2018-12-07T14:41:00.244Z,34.80
2018-12-07T14:43:31.249Z,32.43
2018-12-07T14:46:02.097Z,33.63
2018-12-07T14:48:32.718Z,32.30
2018-12-07T14:51:03.504Z,29.20
2018-12-07T14:53:34.489Z,30.47
2018-12-07T14:56:05.190Z,30.30
2018-12-07T14:58:36.824Z,30.93
2018-12-07T15:01:07.619Z,33.50
2018-12-07T15:03:38.861Z,38.07
2018-12-07T15:06:10.768Z,36.40
2018-12-07T15:08:41.695Z,38.27
2018-12-07T15:11:12.465Z,42.57
2018-12-07T15:13:43.149Z,44.37
2018-12-07T15:16:13.851Z,43.47
2018-12-07T15:18:44.519Z,48.47
2018-12-07T15:21:15.194Z,50.73
2018-12-07T15:23:46.086Z,47.23
2018-12-07T15:26:18.052Z,47.80
2018-12-07T15:28:48.887Z,43.97
2018-12-07T15:31:19.579Z,45.40
2018-12-07T15:33:51.317Z,43.97
2018-12-07T15:36:22.217Z,44.70
2018-12-07T15:38:53.013Z,39.43
2018-12-07T15:41:23.820Z,42.93
2018-12-07T15:43:56.444Z,44.23
2018-12-07T15:48:23.041Z,39.27
2018-12-07T15:50:53.607Z,42.93
2018-12-07T15:53:24.476Z,40.77
2018-12-07T15:55:55.282Z,39.23
2018-12-07T15:58:26.397Z,38.40
2018-12-07T16:00:57.300Z,36.00
2018-12-07T16:03:28.216Z,37.77
2018-12-07T16:05:59.167Z,42.03
2018-12-07T16:08:29.931Z,42.23
2018-12-07T16:11:01.604Z,41.73
2018-12-07T16:13:33.810Z,41.03
2018-12-07T16:16:04.588Z,35.17
2018-12-07T16:18:35.198Z,44.43
2018-12-07T16:21:06.048Z,39.93
2018-12-07T16:23:38.098Z,42.27
2018-12-07T16:26:08.927Z,40.03
2018-12-07T16:28:39.922Z,48.07
2018-12-07T16:31:10.792Z,45.87
2018-12-07T16:33:41.894Z,42.47
2018-12-07T16:36:12.486Z,48.87
2018-12-07T16:38:43.107Z,50.03
2018-12-07T16:41:13.922Z,56.07
2018-12-07T16:43:44.610Z,51.27
2018-12-07T16:46:15.443Z,50.00
2018-12-07T16:48:46.116Z,53.17
2018-12-07T16:51:17.033Z,48.00
2018-12-07T16:53:47.829Z,50.97
2018-12-07T16:56:18.625Z,50.90
2018-12-07T16:58:49.346Z,52.47
2018-12-07T17:01:20.069Z,51.00
2018-12-07T17:03:50.741Z,54.50
2018-12-07T17:06:21.654Z,55.93
2018-12-07T17:08:52.447Z,51.30
2018-12-07T17:11:23.118Z,57.70
2018-12-07T17:13:53.775Z,53.43
2018-12-07T17:16:24.491Z,49.83
2018-12-07T17:18:55.142Z,46.60
2018-12-07T17:21:26.120Z,47.83
2018-12-07T17:23:56.799Z,57.80
2018-12-07T17:26:27.378Z,60.53
2018-12-07T17:28:58.184Z,59.43
2018-12-07T17:31:28.906Z,71.23
2018-12-07T17:33:59.892Z,71.90
2018-12-07T17:36:30.735Z,76.00
2018-12-07T17:39:01.561Z,76.23
2018-12-07T17:41:34.325Z,73.20
2018-12-07T17:44:05.055Z,80.83
2018-12-07T17:46:35.901Z,81.03
2018-12-07T17:49:06.701Z,79.53
2018-12-07T17:51:40.428Z,63.57
2018-12-07T17:54:12.513Z,65.77
2018-12-07T17:56:43.314Z,66.53
2018-12-07T17:59:14.202Z,69.90
2018-12-07T18:01:44.967Z,65.23
2018-12-07T18:04:15.575Z,66.63
2018-12-07T18:06:46.321Z,66.13
2018-12-07T18:09:17.105Z,65.30
2018-12-07T18:11:47.952Z,62.27
2018-12-07T18:14:18.826Z,59.17
2018-12-07T18:16:49.514Z,55.70
2018-12-07T18:19:20.160Z,58.93
2018-12-07T18:21:50.823Z,47.97
2018-12-07T18:24:21.578Z,58.60
2018-12-07T18:26:52.742Z,52.10
2018-12-07T18:29:23.435Z,49.10
2018-12-07T18:31:54.480Z,53.93
2018-12-07T18:34:25.658Z,51.63
2018-12-07T18:36:56.302Z,54.83
2018-12-07T18:39:26.917Z,57.43
2018-12-07T18:41:57.802Z,51.97
2018-12-07T18:44:29.005Z,49.83
2018-12-07T18:46:59.888Z,52.40
2018-12-07T18:49:30.820Z,51.47
2018-12-07T18:52:01.824Z,51.57
2018-12-07T18:54:32.481Z,48.57
2018-12-07T18:57:03.256Z,50.77
2018-12-07T18:59:33.945Z,46.37
2018-12-07T19:02:04.955Z,51.13
2018-12-07T19:04:37.644Z,49.93
2018-12-07T19:07:08.514Z,46.47
2018-12-07T19:09:39.552Z,51.73
2018-12-07T19:12:10.578Z,54.50
2018-12-07T19:14:41.544Z,52.83
2018-12-07T19:17:12.474Z,49.23
2018-12-07T19:19:43.850Z,52.87
2018-12-07T19:22:14.638Z,52.43
2018-12-07T19:24:45.327Z,57.80
2018-12-07T19:27:18.934Z,59.10
2018-12-07T19:29:49.643Z,52.63
2018-12-07T19:32:20.527Z,55.10
2018-12-07T19:34:51.446Z,57.73
2018-12-07T19:37:22.370Z,62.87
2018-12-07T19:39:53.125Z,59.93
2018-12-07T19:42:23.797Z,61.93
2018-12-07T19:44:54.678Z,59.23
2018-12-07T19:47:25.523Z,62.30
2018-12-07T19:49:56.370Z,62.67
2018-12-07T19:52:27.207Z,68.60
2018-12-07T19:54:58.066Z,63.37
2018-12-07T19:57:28.802Z,60.17
2018-12-07T19:59:59.399Z,62.47
2018-12-07T20:02:30.217Z,53.83
2018-12-07T20:05:00.900Z,67.27
2018-12-07T20:07:32.118Z,53.70
2018-12-07T20:10:02.865Z,62.93
2018-12-07T20:12:33.858Z,62.47
2018-12-07T20:15:04.575Z,64.93
2018-12-07T20:17:35.205Z,68.97
2018-12-07T20:20:07.502Z,64.87
2018-12-07T20:22:38.395Z,72.60
2018-12-07T20:25:08.930Z,68.40
2018-12-07T20:27:39.552Z,76.47
2018-12-07T20:30:11.255Z,67.67
2018-12-07T20:32:46.710Z,67.27
2018-12-07T20:35:17.192Z,63.93
2018-12-07T20:37:48.062Z,65.43
2018-12-07T20:40:18.727Z,71.90
2018-12-07T20:42:49.472Z,71.83
2018-12-07T20:45:20.582Z,70.63
2018-12-07T20:47:50.963Z,74.10
2018-12-07T20:50:21.155Z,56.90
2018-12-07T20:52:51.438Z,58.37
2018-12-07T20:55:21.897Z,61.00
2018-12-07T20:57:52.480Z,65.13
2018-12-07T21:00:23.535Z,56.90
2018-12-07T21:02:54.393Z,57.20
2018-12-07T21:09:34.782Z,56.13
2018-12-07T21:12:23.820Z,60.57
2018-12-07T21:14:56.118Z,58.20
2018-12-07T21:17:31.227Z,51.00
2018-12-07T21:20:23.251Z,49.50
2018-12-07T21:22:53.414Z,42.97
2018-12-07T21:25:23.622Z,51.73
2018-12-07T21:27:54.032Z,50.53
2018-12-07T21:31:02.856Z,45.17
2018-12-07T21:33:49.279Z,40.93
2018-12-07T21:36:39.421Z,41.13
2018-12-07T21:39:20.254Z,32.40
2018-12-07T21:41:50.907Z,38.10
2018-12-07T21:44:21.158Z,40.37
2018-12-07T21:46:51.591Z,44.77
2018-12-07T21:52:33.486Z,44.13
2018-12-07T21:55:03.634Z,35.93
2018-12-07T21:57:33.973Z,37.10
2018-12-07T22:00:04.693Z,39.37
2018-12-07T22:02:35.829Z,35.80
2018-12-07T22:05:06.213Z,33.97
2018-12-07T22:07:36.878Z,27.27
2018-12-07T22:10:07.484Z,27.70
2018-12-07T22:12:38.000Z,22.60
2018-12-07T22:15:08.491Z,25.73
2018-12-07T22:17:38.876Z,24.37
2018-12-07T22:20:09.393Z,22.40
2018-12-07T22:22:39.919Z,20.30
2018-12-07T22:25:10.746Z,20.47
2018-12-07T22:27:41.282Z,20.10
2018-12-07T22:30:11.672Z,17.83
2018-12-07T22:32:41.911Z,19.43
2018-12-07T22:35:12.136Z,23.53
2018-12-07T22:37:42.433Z,18.13
2018-12-07T22:40:12.905Z,21.60
2018-12-07T22:42:43.214Z,20.60
2018-12-07T22:45:13.471Z,23.67
2018-12-07T22:47:43.782Z,21.67
2018-12-07T22:50:13.952Z,24.07
2018-12-07T22:52:44.022Z,24.27
2018-12-07T22:55:14.506Z,17.77
2018-12-07T22:57:44.712Z,18.67
2018-12-07T23:00:18.971Z,20.77
2018-12-07T23:02:51.154Z,19.87
2018-12-07T23:05:21.232Z,22.33
2018-12-07T23:07:51.389Z,18.80
2018-12-07T23:10:21.547Z,18.17
2018-12-07T23:12:52.039Z,15.83
2018-12-07T23:15:22.510Z,18.60
2018-12-07T23:17:53.054Z,21.50
2018-12-07T23:20:23.527Z,17.93
2018-12-07T23:22:54.102Z,16.90
2018-12-07T23:25:24.613Z,17.67
2018-12-07T23:27:55.187Z,18.10
2018-12-07T23:30:25.678Z,17.77
2018-12-07T23:32:56.211Z,15.60
2018-12-07T23:35:26.751Z,20.63
2018-12-07T23:37:57.330Z,19.13
2018-12-07T23:40:27.830Z,17.63
2018-12-07T23:43:02.452Z,17.73
2018-12-07T23:45:32.974Z,20.00
2018-12-07T23:48:03.562Z,17.77
2018-12-07T23:50:35.085Z,18.27
2018-12-07T23:53:05.583Z,17.53
2018-12-07T23:55:36.124Z,19.50
2018-12-07T23:58:06.642Z,18.57
